Allen Springs, Kentucky
Current Conditions -  °F | °C
As of 4:53 PM on Tuesday 25 Nov 2014 (Local Time) from KBWG Reporting Station
Clear Clear  
Wind Chill: 45°   Ceiling: Unl
Heat Index: 45°   Visibility: 10mi
Dew Point: 25°   Wind: 3mph
Humidity: 46%   Direction: 320°NW
Pressure: 30.14"   Gusts: NA
Location:  36.8592°N, 86.3531°W
Report Text: KBWG 252253Z AUTO 32003KT 10SM CLR 07/M04 A3014 RMK AO2 SLP207 T00721039
Loading
Personal Weather Stations






























Interactive Weather Map New forecast layout! Learn more

10-Day Weather Forecast

Advertisements
Track Severe Weather on mobile